createdAt,value
2023-02-27T00:04:56.876Z,0.3
2023-02-27T00:09:02.794Z,0.2
2023-02-27T00:13:08.609Z,0.2
2023-02-27T00:15:11.545Z,0.2
2023-02-27T00:17:14.486Z,0.1
2023-02-27T00:19:20.610Z,0
2023-02-27T00:21:23.774Z,0
2023-02-27T00:23:26.468Z,0
2023-02-27T00:26:32.502Z,-0.1
2023-02-27T00:28:35.419Z,-0.1
2023-02-27T00:30:38.414Z,-0.1
2023-02-27T00:32:44.550Z,0
2023-02-27T00:34:47.473Z,-0.1
2023-02-27T00:36:50.394Z,-0.1
2023-02-27T00:38:53.302Z,-0.1
2023-02-27T00:40:56.233Z,-0.1
2023-02-27T00:42:59.175Z,-0.1
2023-02-27T00:47:08.245Z,0
2023-02-27T00:53:17.010Z,-0.2
2023-02-27T00:55:19.958Z,-0.3
2023-02-27T00:57:22.914Z,-0.3
2023-02-27T00:59:25.803Z,-0.3
2023-02-27T01:01:31.922Z,-0.3
2023-02-27T01:03:34.836Z,-0.2
2023-02-27T01:05:37.748Z,-0.3
2023-02-27T01:07:40.665Z,-0.3
2023-02-27T01:11:46.502Z,-0.4
2023-02-27T01:13:49.430Z,-0.4
2023-02-27T01:15:55.585Z,-0.5
2023-02-27T01:17:58.479Z,-0.5
2023-02-27T01:20:01.428Z,-0.5
2023-02-27T01:21:04.460Z,-0.5
2023-02-27T01:23:07.380Z,-0.6
2023-02-27T01:25:10.310Z,-0.5
2023-02-27T01:27:13.217Z,-0.5
2023-02-27T01:29:19.316Z,-0.5
2023-02-27T01:35:28.043Z,-0.4
2023-02-27T01:41:36.755Z,-0.5
2023-02-27T01:47:48.703Z,-0.5
2023-02-27T01:51:54.535Z,-0.4
2023-02-27T01:53:57.447Z,-0.6
2023-02-27T01:58:06.496Z,-0.5
2023-02-27T02:00:09.406Z,-0.5
2023-02-27T02:02:12.374Z,-0.5
2023-02-27T02:06:18.121Z,-0.6
2023-02-27T02:08:21.020Z,-0.5
2023-02-27T02:14:32.968Z,-0.5
2023-02-27T02:16:35.919Z,-0.6
2023-02-27T02:17:38.933Z,-0.5
2023-02-27T02:19:41.867Z,-0.5
2023-02-27T02:21:44.769Z,-0.5
2023-02-27T02:25:53.836Z,-0.5
2023-02-27T02:27:56.722Z,-0.5
2023-02-27T02:29:59.632Z,-0.5
2023-02-27T02:32:02.613Z,-0.5
2023-02-27T02:34:05.413Z,-0.6
2023-02-27T02:36:08.334Z,-0.6
2023-02-27T02:38:11.217Z,-0.6
2023-02-27T02:40:17.320Z,-0.7
2023-02-27T02:42:20.230Z,-0.6
2023-02-27T02:44:23.124Z,-0.7
2023-02-27T02:46:26.102Z,-0.7
2023-02-27T02:48:28.913Z,-0.7
2023-02-27T02:50:31.816Z,-0.7
2023-02-27T02:52:34.693Z,-0.7
2023-02-27T02:54:40.837Z,-0.7
2023-02-27T02:56:43.732Z,-0.7
2023-02-27T02:58:46.628Z,-0.7
2023-02-27T03:02:52.426Z,-0.8
2023-02-27T03:04:55.320Z,-0.8
2023-02-27T03:06:58.223Z,-0.9
2023-02-27T03:09:04.340Z,-0.9
2023-02-27T03:11:07.261Z,-0.9
2023-02-27T03:13:10.153Z,-0.9
2023-02-27T03:17:35.074Z,-0.9
2023-02-27T03:19:37.940Z,-0.9
2023-02-27T03:25:49.851Z,-0.9
2023-02-27T03:27:52.759Z,-1
2023-02-27T03:29:55.668Z,-0.9
2023-02-27T03:31:58.650Z,-0.9
2023-02-27T03:34:01.691Z,-1
2023-02-27T03:38:10.451Z,-1
2023-02-27T03:44:19.130Z,-1
2023-02-27T03:46:22.097Z,-1
2023-02-27T03:50:30.986Z,-1
2023-02-27T03:52:33.840Z,-0.9
2023-02-27T03:54:36.738Z,-0.9
2023-02-27T03:56:41.239Z,-1
2023-02-27T03:58:44.087Z,-0.9
2023-02-27T04:00:46.929Z,-0.9
2023-02-27T04:02:49.883Z,-0.9
2023-02-27T04:04:55.950Z,-0.9
2023-02-27T04:06:58.851Z,-0.9
2023-02-27T04:09:01.732Z,-0.9
2023-02-27T04:10:04.778Z,-0.9
2023-02-27T04:12:07.667Z,-1
2023-02-27T04:14:10.535Z,-1
2023-02-27T04:18:19.544Z,-1
2023-02-27T04:20:22.419Z,-0.9
2023-02-27T04:22:25.322Z,-0.9
2023-02-27T04:24:28.200Z,-1
2023-02-27T04:26:31.098Z,-1
2023-02-27T04:28:33.959Z,-1
2023-02-27T04:30:36.858Z,-1
2023-02-27T04:34:45.826Z,-1
2023-02-27T04:36:48.740Z,-1
2023-02-27T04:38:51.598Z,-1
2023-02-27T04:49:09.203Z,-1.1
2023-02-27T04:55:17.823Z,-1.1
2023-02-27T05:03:32.538Z,-1
2023-02-27T05:06:38.475Z,-1.1
2023-02-27T05:08:41.331Z,-1.1
2023-02-27T05:10:45.262Z,-1
2023-02-27T05:12:48.188Z,-1.1
2023-02-27T05:14:54.250Z,-1
2023-02-27T05:21:02.891Z,-1.1
2023-02-27T05:23:05.768Z,-1.1
2023-02-27T05:25:08.630Z,-1.1
2023-02-27T05:27:11.490Z,-1.1
2023-02-27T05:33:23.330Z,-1.1
2023-02-27T05:35:28.921Z,-1.2
2023-02-27T05:37:29.077Z,-1.2
2023-02-27T05:39:31.942Z,-1.2
2023-02-27T05:43:40.860Z,-1.2
2023-02-27T05:49:49.496Z,-1.2
2023-02-27T05:53:55.198Z,-1.2
2023-02-27T05:58:04.116Z,-1.3
2023-02-27T06:00:07.005Z,-1.3
2023-02-27T06:02:09.879Z,-1.3
2023-02-27T06:03:12.953Z,-1.4
2023-02-27T06:05:15.809Z,-1.3
2023-02-27T06:07:18.651Z,-1.3
2023-02-27T06:09:21.508Z,-1.3
2023-02-27T06:13:30.450Z,-1.4
2023-02-27T06:19:39.046Z,-1.3
2023-02-27T06:21:41.904Z,-1.4
2023-02-27T06:23:48.682Z,-1.3
2023-02-27T06:25:50.836Z,-1.3
2023-02-27T06:29:56.560Z,-1.3
2023-02-27T06:38:08.019Z,-1.3
2023-02-27T06:40:14.103Z,-1.3
2023-02-27T06:44:19.808Z,-1.3
2023-02-27T06:48:25.529Z,-1.2
2023-02-27T06:50:28.402Z,-1.2
2023-02-27T06:54:37.344Z,-1.1
2023-02-27T06:56:40.232Z,-1.2
2023-02-27T06:58:43.140Z,-1.1
2023-02-27T07:01:13.056Z,-1
2023-02-27T07:03:15.937Z,-1
2023-02-27T07:05:18.809Z,-0.9
2023-02-27T07:07:33.090Z,-0.8
2023-02-27T07:09:27.809Z,-0.8
2023-02-27T07:11:30.698Z,-0.7
2023-02-27T07:13:33.571Z,-0.6
2023-02-27T07:15:36.534Z,-0.5
2023-02-27T07:17:39.352Z,-0.5
2023-02-27T07:19:42.188Z,-0.5
2023-02-27T07:21:48.313Z,-0.4
2023-02-27T07:23:51.196Z,-0.3
2023-02-27T07:27:56.971Z,-0.1
2023-02-27T07:29:59.884Z,-0.1
2023-02-27T07:32:02.817Z,0
2023-02-27T07:36:11.788Z,0.2
2023-02-27T07:38:14.673Z,0.3
2023-02-27T07:40:17.588Z,0.4
2023-02-27T07:42:20.526Z,0.4
2023-02-27T07:44:17.484Z,0.5
2023-02-27T07:46:20.426Z,0.6
2023-02-27T07:48:23.309Z,0.7
2023-02-27T07:50:29.440Z,0.8
2023-02-27T07:57:41.292Z,2.5
2023-02-27T07:59:44.158Z,5.2
2023-02-27T08:03:53.190Z,8.5
2023-02-27T08:05:56.160Z,8.7
2023-02-27T08:07:59.052Z,9.6
2023-02-27T08:10:02.022Z,10
2023-02-27T08:14:07.905Z,10.3
2023-02-27T08:16:10.880Z,10.6
2023-02-27T08:18:17.047Z,10.8
2023-02-27T08:20:20.030Z,10.6
2023-02-27T08:22:23.029Z,10.4
2023-02-27T08:26:29.461Z,11.1
2023-02-27T08:28:32.092Z,11.5
2023-02-27T08:30:35.119Z,12.3
2023-02-27T08:32:41.392Z,12.5
2023-02-27T08:34:44.415Z,11.9
2023-02-27T08:36:47.492Z,11.6
2023-02-27T08:38:50.528Z,11.4
2023-02-27T08:40:53.557Z,12.7
2023-02-27T08:42:56.612Z,12
2023-02-27T08:44:59.705Z,11.5
2023-02-27T08:47:06.000Z,13
2023-02-27T08:51:12.149Z,13.9
2023-02-27T08:56:21.492Z,12.9
2023-02-27T08:58:24.598Z,13.7
2023-02-27T09:00:30.895Z,14.2
2023-02-27T09:02:34.083Z,14.1
2023-02-27T09:04:37.081Z,14.3
2023-02-27T09:06:40.189Z,14.5
2023-02-27T09:08:43.298Z,14.6
2023-02-27T09:10:46.438Z,12.2
2023-02-27T09:14:55.868Z,11.8
2023-02-27T09:19:02.141Z,13.1
2023-02-27T09:21:05.287Z,13.6
2023-02-27T09:23:08.413Z,13.9
2023-02-27T09:25:11.871Z,13.8
2023-02-27T09:27:14.695Z,11.6
2023-02-27T09:29:21.015Z,11.9
2023-02-27T09:31:24.347Z,11.9
2023-02-27T09:33:29.104Z,11.8
2023-02-27T09:39:36.693Z,9.6
2023-02-27T09:41:39.851Z,9.2
2023-02-27T09:45:49.469Z,8
2023-02-27T09:47:52.493Z,7.5
2023-02-27T09:48:55.663Z,7.7
2023-02-27T09:51:00.385Z,7.6
2023-02-27T09:57:12.940Z,6.9
2023-02-27T09:59:16.054Z,6.7
2023-02-27T10:01:19.207Z,7.5
2023-02-27T10:03:22.437Z,7.5
2023-02-27T10:07:28.603Z,7.2
2023-02-27T10:09:31.740Z,7.7
2023-02-27T10:11:38.092Z,7.3
2023-02-27T10:13:41.201Z,7.3
2023-02-27T10:15:44.330Z,7.3
2023-02-27T10:17:47.470Z,7.1
2023-02-27T10:19:50.585Z,7.1
2023-02-27T10:21:53.713Z,7.3
2023-02-27T10:23:56.856Z,7.2
2023-02-27T10:28:06.325Z,6.7
2023-02-27T10:30:11.208Z,6.7
2023-02-27T10:32:12.624Z,6.6
2023-02-27T10:36:32.518Z,6.7
2023-02-27T10:42:31.475Z,6.9
2023-02-27T10:49:07.502Z,6.9
2023-02-27T10:51:10.626Z,7.2
2023-02-27T10:53:16.984Z,7.7
2023-02-27T10:55:20.138Z,7.7
2023-02-27T10:57:23.241Z,7.3
2023-02-27T10:59:26.345Z,7.5
2023-02-27T11:01:29.847Z,8.2
2023-02-27T11:03:32.604Z,8.6
2023-02-27T11:05:35.754Z,8.2
2023-02-27T11:07:42.109Z,8.2
2023-02-27T11:09:45.205Z,8.2
2023-02-27T11:11:48.341Z,8.4
2023-02-27T11:13:51.486Z,8.9
2023-02-27T11:15:54.663Z,8.5
2023-02-27T11:17:57.722Z,8.5
2023-02-27T11:20:00.872Z,8.7
2023-02-27T11:22:07.237Z,9.1
2023-02-27T11:24:10.401Z,9.3
2023-02-27T11:26:13.561Z,9.4
2023-02-27T11:28:16.613Z,9.2
2023-02-27T11:30:19.652Z,9.5
2023-02-27T11:32:22.801Z,9.6
2023-02-27T11:34:25.744Z,9.8
2023-02-27T11:36:31.895Z,10
2023-02-27T11:40:37.997Z,10
2023-02-27T11:43:44.147Z,9.9
2023-02-27T11:46:11.913Z,9.6
2023-02-27T11:47:50.267Z,9.9
2023-02-27T11:49:56.424Z,10.9
2023-02-27T11:51:59.475Z,10.6
2023-02-27T11:54:02.506Z,9.6
2023-02-27T12:08:27.031Z,8.3
2023-02-27T12:14:36.217Z,8.1
2023-02-27T12:20:48.693Z,7.7
2023-02-27T12:22:51.875Z,7.8
2023-02-27T12:29:01.341Z,7.1
2023-02-27T12:31:04.513Z,7.1
2023-02-27T12:33:10.833Z,7.4
2023-02-27T12:37:17.091Z,7.3
2023-02-27T12:40:23.415Z,7.1
2023-02-27T12:42:26.561Z,8.4
2023-02-27T12:44:29.704Z,10
2023-02-27T12:46:36.028Z,11.1
2023-02-27T12:48:39.189Z,10.7
2023-02-27T12:50:42.348Z,9.4
2023-02-27T12:52:45.484Z,8.9
2023-02-27T12:54:48.651Z,9.9
2023-02-27T12:56:51.806Z,8.6
2023-02-27T12:58:54.977Z,7.8
2023-02-27T13:01:01.388Z,7.7
2023-02-27T13:03:04.479Z,7.3
2023-02-27T13:05:07.640Z,7.3
2023-02-27T13:07:10.802Z,8.1
2023-02-27T13:09:13.926Z,8.6
2023-02-27T13:11:17.086Z,8.9
2023-02-27T13:13:20.255Z,8.2
2023-02-27T13:15:26.621Z,9.7
2023-02-27T13:21:36.022Z,8
2023-02-27T13:33:58.100Z,12.2
2023-02-27T13:35:01.269Z,11.9
2023-02-27T13:37:04.504Z,12
2023-02-27T13:39:07.481Z,13.2
2023-02-27T13:43:16.719Z,8.9
2023-02-27T13:47:22.856Z,7.8
2023-02-27T13:49:29.330Z,7.7
2023-02-27T13:51:29.271Z,7.8
2023-02-27T13:53:32.322Z,8.5
2023-02-27T13:55:35.455Z,9.3
2023-02-27T13:57:41.847Z,12
2023-02-27T13:59:45.004Z,11.5
2023-02-27T14:01:48.248Z,11.8
2023-02-27T14:03:51.325Z,10.9
2023-02-27T14:05:54.507Z,9.6
2023-02-27T14:07:57.660Z,8.6
2023-02-27T14:10:00.812Z,11.4
2023-02-27T14:12:07.177Z,13.4
2023-02-27T14:16:13.554Z,14.1
2023-02-27T14:20:19.620Z,10.1
2023-02-27T14:22:22.706Z,8.6
2023-02-27T14:24:25.760Z,7.8
2023-02-27T14:26:32.175Z,7.5
2023-02-27T14:28:35.318Z,7.3
2023-02-27T14:30:38.496Z,7.4
2023-02-27T14:35:11.424Z,7.4
2023-02-27T14:39:20.922Z,8
2023-02-27T14:41:24.079Z,8.2
2023-02-27T14:47:33.559Z,10.5
2023-02-27T14:49:36.695Z,10.2
2023-02-27T14:51:39.858Z,10.3
2023-02-27T14:53:46.187Z,10.6
2023-02-27T14:55:49.336Z,10.6
2023-02-27T14:57:52.498Z,10.6
2023-02-27T14:59:55.639Z,11.2
2023-02-27T15:01:58.905Z,11.5
2023-02-27T15:04:02.092Z,12.1
2023-02-27T15:06:05.110Z,11.9
2023-02-27T15:08:11.468Z,11.4
2023-02-27T15:10:14.620Z,11.6
2023-02-27T15:12:17.787Z,11.8
2023-02-27T15:14:21.495Z,11.2
2023-02-27T15:16:24.588Z,10
2023-02-27T15:18:27.684Z,9.9
2023-02-27T15:20:30.857Z,10.4
2023-02-27T15:27:46.759Z,8.1
2023-02-27T15:31:53.142Z,7.4
2023-02-27T15:33:56.254Z,7.3
2023-02-27T15:36:03.273Z,7
2023-02-27T15:38:06.348Z,7
2023-02-27T15:40:09.514Z,6.8
2023-02-27T15:42:12.647Z,6.9
2023-02-27T15:44:15.804Z,6.9
2023-02-27T15:46:20.545Z,8.7
2023-02-27T15:48:23.652Z,11
2023-02-27T15:50:29.990Z,10.4
2023-02-27T15:52:33.138Z,10.7
2023-02-27T15:54:36.277Z,11.5
2023-02-27T15:58:42.576Z,12.2
2023-02-27T16:00:45.729Z,12.2
2023-02-27T16:04:55.229Z,11.1
2023-02-27T16:06:58.395Z,10.8
2023-02-27T16:09:01.548Z,10.8
2023-02-27T16:11:04.700Z,10.9
2023-02-27T16:13:07.843Z,10.4
2023-02-27T16:15:10.991Z,10.7
2023-02-27T16:17:14.145Z,10.4
2023-02-27T16:21:23.652Z,10.6
2023-02-27T16:23:26.806Z,10.8
2023-02-27T16:24:29.980Z,10.7
2023-02-27T16:26:33.148Z,10.7
2023-02-27T16:32:45.915Z,7.6
2023-02-27T16:34:48.975Z,7.4
2023-02-27T16:36:52.147Z,6.9
2023-02-27T16:38:55.299Z,6.7
2023-02-27T16:43:01.602Z,6.4
2023-02-27T16:47:11.094Z,6.2
2023-02-27T16:49:19.792Z,6.2
2023-02-27T16:51:17.380Z,6.2
2023-02-27T16:53:20.548Z,5.9
2023-02-27T16:55:23.642Z,6
2023-02-27T16:57:26.797Z,5.9
2023-02-27T16:59:29.886Z,5.8
2023-02-27T17:01:36.311Z,5.6
2023-02-27T17:03:39.337Z,5.7
2023-02-27T17:05:42.462Z,5.6
2023-02-27T17:07:45.561Z,5.6
2023-02-27T17:09:48.665Z,5.5
2023-02-27T17:11:51.760Z,5.4
2023-02-27T17:13:54.859Z,5.3
2023-02-27T17:16:01.182Z,5.3
2023-02-27T17:18:04.312Z,5.2
2023-02-27T17:21:10.540Z,5.2
2023-02-27T17:25:16.725Z,5.1
2023-02-27T17:27:19.824Z,5.1
2023-02-27T17:29:26.098Z,5.1
2023-02-27T17:31:29.181Z,5.1
2023-02-27T17:33:32.267Z,5
2023-02-27T17:35:35.377Z,5
2023-02-27T17:37:38.454Z,4.8
2023-02-27T17:39:41.529Z,4.9
2023-02-27T17:43:50.908Z,4.8
2023-02-27T17:52:03.166Z,4.8
2023-02-27T17:54:06.263Z,4.8
2023-02-27T17:56:09.315Z,4.8
2023-02-27T17:58:15.601Z,4.5
2023-02-27T18:00:18.686Z,4.6
2023-02-27T18:02:21.814Z,4.6
2023-02-27T18:04:24.832Z,4.6
2023-02-27T18:06:28.297Z,4.5
2023-02-27T18:08:30.962Z,4.4
2023-02-27T18:10:34.045Z,4.4
2023-02-27T18:12:40.316Z,4.3
2023-02-27T18:14:43.382Z,4.2
2023-02-27T18:16:46.461Z,4.2
2023-02-27T18:21:13.552Z,4.1
2023-02-27T18:23:17.416Z,4.1
2023-02-27T18:25:23.692Z,4.1
2023-02-27T18:27:26.776Z,4.1
2023-02-27T18:31:32.902Z,4.3
2023-02-27T18:33:35.984Z,4.2
2023-02-27T18:35:39.016Z,4.2
2023-02-27T18:37:42.065Z,4.2
2023-02-27T18:39:48.350Z,4.1
2023-02-27T18:41:51.414Z,4
2023-02-27T18:43:54.488Z,4
2023-02-27T18:50:03.688Z,3.9
2023-02-27T18:54:13.018Z,3.7
2023-02-27T18:56:16.023Z,3.7
2023-02-27T19:06:31.376Z,3.6
2023-02-27T19:12:43.644Z,3.6
2023-02-27T19:13:46.797Z,3.6
2023-02-27T19:15:49.813Z,3.7
2023-02-27T19:17:52.843Z,3.6
2023-02-27T19:19:55.881Z,3.7
2023-02-27T19:22:02.150Z,3.6
2023-02-27T19:24:05.212Z,3.5
2023-02-27T19:26:08.242Z,3.5
2023-02-27T19:28:11.292Z,3.4
2023-02-27T19:30:14.322Z,3.5
2023-02-27T19:32:17.386Z,3.5
2023-02-27T19:36:27.047Z,3.4
2023-02-27T19:40:32.740Z,3.3
2023-02-27T19:42:35.758Z,3.3
2023-02-27T19:44:38.805Z,3.2
2023-02-27T19:46:41.883Z,3.2
2023-02-27T19:48:44.869Z,3.2
2023-02-27T19:50:51.094Z,3.2
2023-02-27T19:52:54.132Z,3.2
2023-02-27T19:54:57.173Z,3.1
2023-02-27T19:59:03.233Z,3.1
2023-02-27T20:01:06.312Z,3
2023-02-27T20:03:09.271Z,3.1
2023-02-27T20:05:15.516Z,3
2023-02-27T20:07:18.534Z,3
2023-02-27T20:09:21.555Z,3
2023-02-27T20:10:24.643Z,2.9
2023-02-27T20:12:27.668Z,2.8
2023-02-27T20:14:30.684Z,2.9
2023-02-27T20:16:33.735Z,2.9
2023-02-27T20:18:41.686Z,2.6
2023-02-27T20:20:42.926Z,2.7
2023-02-27T20:22:45.953Z,2.7
2023-02-27T20:24:48.953Z,2.7
2023-02-27T20:26:51.981Z,2.6
2023-02-27T20:30:58.005Z,2.5
2023-02-27T20:33:04.241Z,2.5
2023-02-27T20:35:07.243Z,2.5
2023-02-27T20:39:13.245Z,2.5
2023-02-27T20:43:19.260Z,2.4
2023-02-27T20:45:22.266Z,2.2
2023-02-27T20:49:31.469Z,2.3
2023-02-27T20:51:34.488Z,2.2
2023-02-27T20:55:40.480Z,2
2023-02-27T20:57:43.484Z,2
2023-02-27T20:59:46.467Z,2
2023-02-27T21:01:52.839Z,2
2023-02-27T21:03:55.753Z,2
2023-02-27T21:05:58.660Z,1.9
2023-02-27T21:07:01.771Z,1.9
2023-02-27T21:09:04.761Z,1.8
2023-02-27T21:11:07.740Z,1.9
2023-02-27T21:13:10.731Z,1.8
2023-02-27T21:15:16.928Z,1.8
2023-02-27T21:17:19.902Z,1.8
2023-02-27T21:19:22.889Z,1.7
2023-02-27T21:21:25.891Z,1.6
2023-02-27T21:25:31.804Z,1.6
2023-02-27T21:27:34.792Z,1.6
2023-02-27T21:29:40.977Z,1.6
2023-02-27T21:37:52.844Z,1.5
2023-02-27T21:48:12.479Z,1.4
2023-02-27T21:50:15.503Z,1.3
2023-02-27T21:54:21.361Z,1.4
2023-02-27T21:56:24.322Z,1.3
2023-02-27T22:00:33.441Z,1.2
2023-02-27T22:05:06.347Z,1.3
2023-02-27T22:07:11.376Z,1.2
2023-02-27T22:09:12.281Z,1.3
2023-02-27T22:11:18.452Z,1.2
2023-02-27T22:13:21.409Z,1.2
2023-02-27T22:15:24.353Z,1.3
2023-02-27T22:17:27.341Z,1.3
2023-02-27T22:19:30.269Z,1.3
2023-02-27T22:21:33.226Z,1.3
2023-02-27T22:23:36.189Z,1.3
2023-02-27T22:25:42.329Z,1.2
2023-02-27T22:27:45.297Z,1.1
2023-02-27T22:31:51.332Z,1.2
2023-02-27T22:33:54.145Z,1.1
2023-02-27T22:38:00.143Z,1
2023-02-27T22:40:06.205Z,1
2023-02-27T22:42:09.133Z,1.2
2023-02-27T22:44:12.115Z,1.1
2023-02-27T22:46:15.070Z,1.2
2023-02-27T22:48:17.973Z,1.2
2023-02-27T22:50:20.917Z,1.2
2023-02-27T22:52:23.888Z,1.2
2023-02-27T22:54:30.062Z,1.2
2023-02-27T22:56:32.990Z,1.2
2023-02-27T22:58:35.940Z,1.2
2023-02-27T23:01:41.988Z,1.3
2023-02-27T23:03:44.957Z,1.2
2023-02-27T23:05:47.880Z,1.2
2023-02-27T23:07:54.056Z,1.2
2023-02-27T23:09:57.010Z,1.2
2023-02-27T23:14:02.923Z,1.3
2023-02-27T23:16:05.902Z,1.3
2023-02-27T23:18:08.837Z,1.2
2023-02-27T23:20:11.793Z,1.3
2023-02-27T23:22:17.961Z,1.2
2023-02-27T23:24:20.944Z,1.2
2023-02-27T23:26:23.901Z,1.2
2023-02-27T23:28:26.848Z,1.3
2023-02-27T23:30:29.815Z,1.3
2023-02-27T23:32:32.809Z,1.3
2023-02-27T23:34:48.900Z,1.3
2023-02-27T23:36:41.927Z,1.3
2023-02-27T23:38:44.890Z,1.3
2023-02-27T23:40:47.880Z,1.4
2023-02-27T23:42:50.832Z,1.4
2023-02-27T23:44:53.830Z,1.5
2023-02-27T23:46:56.795Z,1.5
2023-02-27T23:48:59.807Z,1.5
2023-02-27T23:51:05.932Z,1.5
2023-02-27T23:53:08.917Z,1.5
2023-02-27T23:55:11.880Z,1.5
2023-02-27T23:56:14.991Z,1.5
2023-02-27T23:58:17.967Z,1.6
